sensor_id;sensor_type;location;lat;lon;timestamp;pressure;altitude;pressure_sealevel;temperature;humidity
59053;BME280;44843;44.728;10.396;2023-05-22T00:01:42;100270.34;;;18.39;100.00
59053;BME280;44843;44.728;10.396;2023-05-22T00:04:07;100267.31;;;18.33;100.00
59053;BME280;44843;44.728;10.396;2023-05-22T00:06:33;100273.59;;;18.23;100.00
59053;BME280;44843;44.728;10.396;2023-05-22T00:08:58;100271.63;;;18.25;100.00
59053;BME280;44843;44.728;10.396;2023-05-22T00:11:23;100267.47;;;18.22;100.00
59053;BME280;44843;44.728;10.396;2023-05-22T00:13:49;100267.59;;;18.21;100.00
59053;BME280;44843;44.728;10.396;2023-05-22T00:16:15;100266.38;;;18.15;100.00
59053;BME280;44843;44.728;10.396;2023-05-22T00:18:40;100265.00;;;18.11;100.00
59053;BME280;44843;44.728;10.396;2023-05-22T00:21:09;100264.88;;;18.03;100.00
59053;BME280;44843;44.728;10.396;2023-05-22T00:23:34;100269.28;;;18.12;100.00
59053;BME280;44843;44.728;10.396;2023-05-22T00:26:00;100268.88;;;18.17;100.00
59053;BME280;44843;44.728;10.396;2023-05-22T00:28:25;100267.47;;;18.22;100.00
59053;BME280;44843;44.728;10.396;2023-05-22T00:30:50;100268.56;;;18.29;100.00
59053;BME280;44843;44.728;10.396;2023-05-22T00:33:16;100270.66;;;18.36;100.00
59053;BME280;44843;44.728;10.396;2023-05-22T00:35:41;100259.41;;;18.33;100.00
59053;BME280;44843;44.728;10.396;2023-05-22T00:38:06;100262.72;;;18.36;100.00
59053;BME280;44843;44.728;10.396;2023-05-22T00:40:32;100259.69;;;18.30;100.00
59053;BME280;44843;44.728;10.396;2023-05-22T00:42:57;100258.56;;;18.23;100.00
59053;BME280;44843;44.728;10.396;2023-05-22T00:45:22;100262.75;;;18.16;100.00
59053;BME280;44843;44.728;10.396;2023-05-22T00:47:48;100257.91;;;18.11;100.00
59053;BME280;44843;44.728;10.396;2023-05-22T00:50:13;100251.13;;;18.09;100.00
59053;BME280;44843;44.728;10.396;2023-05-22T00:52:40;100246.25;;;18.04;100.00
59053;BME280;44843;44.728;10.396;2023-05-22T00:55:06;100247.38;;;18.02;100.00
59053;BME280;44843;44.728;10.396;2023-05-22T00:57:32;100248.63;;;17.98;100.00
59053;BME280;44843;44.728;10.396;2023-05-22T00:59:58;100252.50;;;18.03;100.00
59053;BME280;44843;44.728;10.396;2023-05-22T01:02:24;100251.28;;;17.98;100.00
59053;BME280;44843;44.728;10.396;2023-05-22T01:04:49;100250.97;;;18.01;100.00
59053;BME280;44843;44.728;10.396;2023-05-22T01:07:15;100245.56;;;17.92;100.00
59053;BME280;44843;44.728;10.396;2023-05-22T01:09:42;100259.19;;;17.98;100.00
59053;BME280;44843;44.728;10.396;2023-05-22T01:12:19;100261.53;;;18.01;100.00
59053;BME280;44843;44.728;10.396;2023-05-22T01:17:24;100260.00;;;17.98;100.00
59053;BME280;44843;44.728;10.396;2023-05-22T01:24:58;100264.97;;;18.21;100.00
59053;BME280;44843;44.728;10.396;2023-05-22T01:32:31;100263.63;;;18.07;100.00
59053;BME280;44843;44.728;10.396;2023-05-22T01:34:59;100265.56;;;18.05;100.00
59053;BME280;44843;44.728;10.396;2023-05-22T01:37:25;100262.25;;;17.93;100.00
59053;BME280;44843;44.728;10.396;2023-05-22T01:39:51;100262.38;;;17.91;100.00
59053;BME280;44843;44.728;10.396;2023-05-22T01:42:17;100258.03;;;17.81;100.00
59053;BME280;44843;44.728;10.396;2023-05-22T01:44:43;100257.91;;;17.73;100.00
59053;BME280;44843;44.728;10.396;2023-05-22T01:47:08;100257.22;;;17.61;100.00
59053;BME280;44843;44.728;10.396;2023-05-22T01:49:34;100269.44;;;17.71;100.00
59053;BME280;44843;44.728;10.396;2023-05-22T01:52:11;100268.88;;;17.68;100.00
59053;BME280;44843;44.728;10.396;2023-05-22T01:57:20;100265.41;;;17.67;100.00
59053;BME280;44843;44.728;10.396;2023-05-22T01:59:51;100258.59;;;17.65;100.00
59053;BME280;44843;44.728;10.396;2023-05-22T02:02:18;100258.59;;;17.65;100.00
59053;BME280;44843;44.728;10.396;2023-05-22T02:04:45;100247.38;;;17.63;100.00
59053;BME280;44843;44.728;10.396;2023-05-22T02:07:12;100244.72;;;17.63;100.00
59053;BME280;44843;44.728;10.396;2023-05-22T02:09:39;100249.72;;;17.66;100.00
59053;BME280;44843;44.728;10.396;2023-05-22T02:12:05;100251.38;;;17.77;100.00
59053;BME280;44843;44.728;10.396;2023-05-22T02:14:30;100254.06;;;17.86;100.00
59053;BME280;44843;44.728;10.396;2023-05-22T02:16:56;100244.03;;;17.90;100.00
59053;BME280;44843;44.728;10.396;2023-05-22T02:19:22;100243.91;;;17.91;100.00
59053;BME280;44843;44.728;10.396;2023-05-22T02:21:47;100237.66;;;17.92;100.00
59053;BME280;44843;44.728;10.396;2023-05-22T02:24:12;100240.00;;;17.76;100.00
59053;BME280;44843;44.728;10.396;2023-05-22T02:26:37;100238.63;;;17.72;100.00
59053;BME280;44843;44.728;10.396;2023-05-22T02:29:03;100245.69;;;17.71;100.00
59053;BME280;44843;44.728;10.396;2023-05-22T02:31:29;100238.88;;;17.59;100.00
59053;BME280;44843;44.728;10.396;2023-05-22T02:33:54;100234.31;;;17.52;100.00
59053;BME280;44843;44.728;10.396;2023-05-22T02:36:20;100243.31;;;17.49;100.00
59053;BME280;44843;44.728;10.396;2023-05-22T02:38:45;100242.19;;;17.42;100.00
59053;BME280;44843;44.728;10.396;2023-05-22T02:41:11;100240.38;;;17.42;100.00
59053;BME280;44843;44.728;10.396;2023-05-22T02:43:36;100258.56;;;17.36;100.00
59053;BME280;44843;44.728;10.396;2023-05-22T02:46:01;100255.25;;;17.43;100.00
59053;BME280;44843;44.728;10.396;2023-05-22T02:48:26;100261.06;;;17.37;100.00
59053;BME280;44843;44.728;10.396;2023-05-22T02:50:53;100261.06;;;17.37;100.00
59053;BME280;44843;44.728;10.396;2023-05-22T02:53:18;100266.88;;;17.31;100.00
59053;BME280;44843;44.728;10.396;2023-05-22T02:55:44;100256.88;;;17.25;100.00
59053;BME280;44843;44.728;10.396;2023-05-22T02:58:10;100260.19;;;17.27;100.00
59053;BME280;44843;44.728;10.396;2023-05-22T03:00:39;100259.38;;;17.26;100.00
59053;BME280;44843;44.728;10.396;2023-05-22T03:03:04;100261.06;;;17.27;100.00
59053;BME280;44843;44.728;10.396;2023-05-22T03:05:29;100260.94;;;17.39;100.00
59053;BME280;44843;44.728;10.396;2023-05-22T03:07:55;100268.16;;;17.46;100.00
59053;BME280;44843;44.728;10.396;2023-05-22T03:10:21;100268.59;;;17.52;100.00
59053;BME280;44843;44.728;10.396;2023-05-22T03:12:46;100269.69;;;17.59;100.00
59053;BME280;44843;44.728;10.396;2023-05-22T03:15:12;100270.09;;;17.64;100.00
59053;BME280;44843;44.728;10.396;2023-05-22T03:17:37;100260.09;;;17.58;100.00
59053;BME280;44843;44.728;10.396;2023-05-22T03:20:03;100260.41;;;17.55;100.00
59053;BME280;44843;44.728;10.396;2023-05-22T03:22:29;100259.41;;;17.56;100.00
59053;BME280;44843;44.728;10.396;2023-05-22T03:24:54;100266.50;;;17.45;100.00
59053;BME280;44843;44.728;10.396;2023-05-22T03:27:19;100262.75;;;17.48;100.00
59053;BME280;44843;44.728;10.396;2023-05-22T03:29:45;100261.06;;;17.47;100.00
59053;BME280;44843;44.728;10.396;2023-05-22T03:32:10;100267.72;;;17.41;100.00
59053;BME280;44843;44.728;10.396;2023-05-22T03:34:35;100277.56;;;17.39;100.00
59053;BME280;44843;44.728;10.396;2023-05-22T03:37:00;100275.34;;;17.35;100.00
59053;BME280;44843;44.728;10.396;2023-05-22T03:39:26;100279.09;;;17.42;100.00
59053;BME280;44843;44.728;10.396;2023-05-22T03:41:51;100270.38;;;17.41;100.00
59053;BME280;44843;44.728;10.396;2023-05-22T03:44:16;100275.22;;;17.36;100.00
59053;BME280;44843;44.728;10.396;2023-05-22T03:46:42;100282.44;;;17.34;100.00
59053;BME280;44843;44.728;10.396;2023-05-22T03:49:07;100278.81;;;17.35;100.00
59053;BME280;44843;44.728;10.396;2023-05-22T03:51:32;100279.09;;;17.32;100.00
59053;BME280;44843;44.728;10.396;2023-05-22T03:53:57;100277.56;;;17.39;100.00
59053;BME280;44843;44.728;10.396;2023-05-22T03:56:23;100284.66;;;17.39;100.00
59053;BME280;44843;44.728;10.396;2023-05-22T03:58:48;100281.19;;;17.48;100.00
59053;BME280;44843;44.728;10.396;2023-05-22T04:01:14;100282.47;;;17.54;100.00
59053;BME280;44843;44.728;10.396;2023-05-22T04:03:40;100279.94;;;17.62;100.00
59053;BME280;44843;44.728;10.396;2023-05-22T04:06:06;100282.47;;;17.63;100.00
59053;BME280;44843;44.728;10.396;2023-05-22T04:08:31;100275.50;;;17.53;100.00
59053;BME280;44843;44.728;10.396;2023-05-22T04:10:56;100277.72;;;17.57;100.00
59053;BME280;44843;44.728;10.396;2023-05-22T04:13:22;100281.34;;;17.56;100.00
59053;BME280;44843;44.728;10.396;2023-05-22T04:15:47;100283.00;;;17.57;100.00
59053;BME280;44843;44.728;10.396;2023-05-22T04:18:14;100279.13;;;17.61;100.00
59053;BME280;44843;44.728;10.396;2023-05-22T04:20:39;100285.50;;;17.59;100.00
59053;BME280;44843;44.728;10.396;2023-05-22T04:23:05;100291.19;;;17.64;100.00
59053;BME280;44843;44.728;10.396;2023-05-22T04:25:31;100289.25;;;17.66;100.00
59053;BME280;44843;44.728;10.396;2023-05-22T04:27:58;100294.69;;;17.74;100.00
59053;BME280;44843;44.728;10.396;2023-05-22T04:30:23;100290.09;;;17.76;100.00
59053;BME280;44843;44.728;10.396;2023-05-22T04:32:49;100292.06;;;17.84;100.00
59053;BME280;44843;44.728;10.396;2023-05-22T04:35:14;100297.91;;;17.87;100.00
59053;BME280;44843;44.728;10.396;2023-05-22T04:37:42;100302.50;;;17.95;100.00
59053;BME280;44843;44.728;10.396;2023-05-22T04:40:10;100304.16;;;18.06;100.00
59053;BME280;44843;44.728;10.396;2023-05-22T04:42:36;100295.25;;;18.17;100.00
59053;BME280;44843;44.728;10.396;2023-05-22T04:45:02;100292.47;;;18.18;100.00
59053;BME280;44843;44.728;10.396;2023-05-22T04:47:27;100298.28;;;18.31;100.00
59053;BME280;44843;44.728;10.396;2023-05-22T04:49:55;100302.03;;;18.39;100.00
59053;BME280;44843;44.728;10.396;2023-05-22T04:52:21;100312.94;;;18.73;100.00
59053;BME280;44843;44.728;10.396;2023-05-22T04:54:46;100305.00;;;18.83;100.00
59053;BME280;44843;44.728;10.396;2023-05-22T04:57:11;100304.81;;;18.94;100.00
59053;BME280;44843;44.728;10.396;2023-05-22T04:59:37;100299.22;;;19.07;100.00
59053;BME280;44843;44.728;10.396;2023-05-22T05:02:03;100302.47;;;19.19;100.00
59053;BME280;44843;44.728;10.396;2023-05-22T05:04:28;100309.94;;;19.33;100.00
59053;BME280;44843;44.728;10.396;2023-05-22T05:06:53;100315.97;;;19.43;100.00
59053;BME280;44843;44.728;10.396;2023-05-22T05:09:19;100308.56;;;19.74;100.00
59053;BME280;44843;44.728;10.396;2023-05-22T05:11:44;100299.56;;;19.85;100.00
59053;BME280;44843;44.728;10.396;2023-05-22T05:14:10;100306.81;;;20.19;100.00
59053;BME280;44843;44.728;10.396;2023-05-22T05:16:35;100301.81;;;20.42;100.00
59053;BME280;44843;44.728;10.396;2023-05-22T05:19:00;100295.25;;;20.72;100.00
59053;BME280;44843;44.728;10.396;2023-05-22T05:21:26;100303.06;;;21.08;100.00
59053;BME280;44843;44.728;10.396;2023-05-22T05:23:51;100300.41;;;21.51;100.00
59053;BME280;44843;44.728;10.396;2023-05-22T05:26:17;100298.47;;;21.86;100.00
59053;BME280;44843;44.728;10.396;2023-05-22T05:28:42;100308.22;;;21.77;100.00
59053;BME280;44843;44.728;10.396;2023-05-22T05:31:07;100298.47;;;21.86;100.00
59053;BME280;44843;44.728;10.396;2023-05-22T05:33:32;100304.28;;;22.14;100.00
59053;BME280;44843;44.728;10.396;2023-05-22T05:35:58;100305.59;;;22.18;100.00
59053;BME280;44843;44.728;10.396;2023-05-22T05:38:23;100301.94;;;22.19;100.00
59053;BME280;44843;44.728;10.396;2023-05-22T05:40:48;100301.78;;;21.88;100.00
59053;BME280;44843;44.728;10.396;2023-05-22T05:43:13;100300.31;;;21.93;100.00
59053;BME280;44843;44.728;10.396;2023-05-22T05:45:39;100307.44;;;23.06;100.00
59053;BME280;44843;44.728;10.396;2023-05-22T05:48:05;100300.78;;;24.19;100.00
59053;BME280;44843;44.728;10.396;2023-05-22T05:50:30;100302.28;;;25.40;99.66
59053;BME280;44843;44.728;10.396;2023-05-22T05:52:55;100299.94;;;26.17;91.48
59053;BME280;44843;44.728;10.396;2023-05-22T05:55:20;100306.34;;;27.13;83.65
59053;BME280;44843;44.728;10.396;2023-05-22T05:57:46;100310.56;;;27.43;78.61
59053;BME280;44843;44.728;10.396;2023-05-22T06:00:12;100316.88;;;28.43;73.01
59053;BME280;44843;44.728;10.396;2023-05-22T06:02:37;100304.69;;;28.61;72.85
59053;BME280;44843;44.728;10.396;2023-05-22T06:05:03;100295.78;;;28.80;69.98
59053;BME280;44843;44.728;10.396;2023-05-22T06:07:33;100304.63;;;28.87;67.43
59053;BME280;44843;44.728;10.396;2023-05-22T06:10:05;100311.53;;;29.22;66.06
59053;BME280;44843;44.728;10.396;2023-05-22T06:12:31;100318.72;;;29.34;65.31
59053;BME280;44843;44.728;10.396;2023-05-22T06:14:57;100318.63;;;29.48;64.67
59053;BME280;44843;44.728;10.396;2023-05-22T06:17:22;100314.59;;;29.70;62.81
59053;BME280;44843;44.728;10.396;2023-05-22T06:19:48;100316.38;;;29.45;64.47
59053;BME280;44843;44.728;10.396;2023-05-22T06:22:13;100332.22;;;27.06;76.21
59053;BME280;44843;44.728;10.396;2023-05-22T06:24:39;61389.06;;;-146.16;100.00
59053;BME280;44843;44.728;10.396;2023-05-22T06:27:04;61389.06;;;-146.16;100.00
59053;BME280;44843;44.728;10.396;2023-05-22T06:29:30;61389.06;;;-146.16;100.00
59053;BME280;44843;44.728;10.396;2023-05-22T06:31:55;61389.06;;;-146.16;100.00
59053;BME280;44843;44.728;10.396;2023-05-22T06:34:20;61389.06;;;-146.16;100.00
59053;BME280;44843;44.728;10.396;2023-05-22T06:36:46;61389.06;;;-146.16;100.00
59053;BME280;44843;44.728;10.396;2023-05-22T06:39:14;61389.06;;;-146.16;100.00
59053;BME280;44843;44.728;10.396;2023-05-22T06:41:40;61389.06;;;-146.16;100.00
59053;BME280;44843;44.728;10.396;2023-05-22T06:44:05;61389.06;;;-146.16;100.00
59053;BME280;44843;44.728;10.396;2023-05-22T06:46:31;61389.06;;;-146.16;100.00
59053;BME280;44843;44.728;10.396;2023-05-22T06:48:56;61389.06;;;-146.16;100.00
59053;BME280;44843;44.728;10.396;2023-05-22T06:51:21;61389.06;;;-146.16;100.00
59053;BME280;44843;44.728;10.396;2023-05-22T06:53:48;61389.06;;;-146.16;100.00
59053;BME280;44843;44.728;10.396;2023-05-22T06:56:13;61389.06;;;-146.16;100.00
59053;BME280;44843;44.728;10.396;2023-05-22T06:58:38;61389.06;;;-146.16;100.00
59053;BME280;44843;44.728;10.396;2023-05-22T07:01:04;61389.06;;;-146.16;100.00
59053;BME280;44843;44.728;10.396;2023-05-22T07:03:29;61389.06;;;-146.16;100.00
59053;BME280;44843;44.728;10.396;2023-05-22T07:05:55;61389.06;;;-146.16;100.00
59053;BME280;44843;44.728;10.396;2023-05-22T07:08:24;61389.06;;;-146.16;100.00
59053;BME280;44843;44.728;10.396;2023-05-22T07:10:49;61389.06;;;-146.16;100.00
59053;BME280;44843;44.728;10.396;2023-05-22T07:13:15;61389.06;;;-146.16;100.00
59053;BME280;44843;44.728;10.396;2023-05-22T07:15:41;61389.06;;;-146.16;100.00
59053;BME280;44843;44.728;10.396;2023-05-22T07:18:06;61389.06;;;-146.16;100.00
59053;BME280;44843;44.728;10.396;2023-05-22T07:20:33;61389.06;;;-146.16;100.00
59053;BME280;44843;44.728;10.396;2023-05-22T07:22:58;61389.06;;;-146.16;100.00
59053;BME280;44843;44.728;10.396;2023-05-22T07:25:23;61389.06;;;-146.16;100.00
59053;BME280;44843;44.728;10.396;2023-05-22T07:27:49;61389.06;;;-146.16;100.00
59053;BME280;44843;44.728;10.396;2023-05-22T07:30:14;61389.06;;;-146.16;100.00
59053;BME280;44843;44.728;10.396;2023-05-22T07:32:40;61389.06;;;-146.16;100.00
59053;BME280;44843;44.728;10.396;2023-05-22T07:35:05;61389.06;;;-146.16;100.00
59053;BME280;44843;44.728;10.396;2023-05-22T07:37:31;61389.06;;;-146.16;100.00
59053;BME280;44843;44.728;10.396;2023-05-22T07:39:57;61389.06;;;-146.16;100.00
59053;BME280;44843;44.728;10.396;2023-05-22T07:42:22;61389.06;;;-146.16;100.00
59053;BME280;44843;44.728;10.396;2023-05-22T07:44:47;61389.06;;;-146.16;100.00
59053;BME280;44843;44.728;10.396;2023-05-22T07:47:12;61389.06;;;-146.16;100.00
59053;BME280;44843;44.728;10.396;2023-05-22T07:49:38;61389.06;;;-146.16;100.00
59053;BME280;44843;44.728;10.396;2023-05-22T07:52:03;61389.06;;;-146.16;100.00
59053;BME280;44843;44.728;10.396;2023-05-22T07:54:28;61389.06;;;-146.16;100.00
59053;BME280;44843;44.728;10.396;2023-05-22T07:56:53;61389.06;;;-146.16;100.00
59053;BME280;44843;44.728;10.396;2023-05-22T07:59:20;61389.06;;;-146.16;100.00
59053;BME280;44843;44.728;10.396;2023-05-22T08:01:45;61389.06;;;-146.16;100.00
59053;BME280;44843;44.728;10.396;2023-05-22T08:04:10;61389.06;;;-146.16;100.00
59053;BME280;44843;44.728;10.396;2023-05-22T08:06:36;61389.06;;;-146.16;100.00
59053;BME280;44843;44.728;10.396;2023-05-22T08:09:01;61389.06;;;-146.16;100.00
59053;BME280;44843;44.728;10.396;2023-05-22T08:11:27;61389.06;;;-146.16;100.00
59053;BME280;44843;44.728;10.396;2023-05-22T08:13:52;61389.06;;;-146.16;100.00
59053;BME280;44843;44.728;10.396;2023-05-22T08:16:17;61389.06;;;-146.16;100.00
59053;BME280;44843;44.728;10.396;2023-05-22T08:18:43;61389.06;;;-146.16;100.00
59053;BME280;44843;44.728;10.396;2023-05-22T08:21:08;61389.06;;;-146.16;100.00
59053;BME280;44843;44.728;10.396;2023-05-22T08:23:33;61389.06;;;-146.16;100.00
59053;BME280;44843;44.728;10.396;2023-05-22T08:26:00;61389.06;;;-146.16;100.00
59053;BME280;44843;44.728;10.396;2023-05-22T08:28:25;61389.06;;;-146.16;100.00
59053;BME280;44843;44.728;10.396;2023-05-22T08:30:50;61389.06;;;-146.16;100.00
59053;BME280;44843;44.728;10.396;2023-05-22T08:33:16;61389.06;;;-146.16;100.00
59053;BME280;44843;44.728;10.396;2023-05-22T08:35:41;61389.06;;;-146.16;100.00
59053;BME280;44843;44.728;10.396;2023-05-22T08:38:06;61389.06;;;-146.16;100.00
59053;BME280;44843;44.728;10.396;2023-05-22T08:40:35;61389.06;;;-146.16;100.00
59053;BME280;44843;44.728;10.396;2023-05-22T08:43:01;61389.06;;;-146.16;100.00
59053;BME280;44843;44.728;10.396;2023-05-22T08:45:27;61389.06;;;-146.16;100.00
59053;BME280;44843;44.728;10.396;2023-05-22T08:47:54;61389.06;;;-146.16;100.00
59053;BME280;44843;44.728;10.396;2023-05-22T08:50:19;61389.06;;;-146.16;100.00
59053;BME280;44843;44.728;10.396;2023-05-22T08:55:10;61389.06;;;-146.16;100.00
59053;BME280;44843;44.728;10.396;2023-05-22T08:57:35;61389.06;;;-146.16;100.00
59053;BME280;44843;44.728;10.396;2023-05-22T09:00:01;61389.06;;;-146.16;100.00
59053;BME280;44843;44.728;10.396;2023-05-22T09:02:27;61389.06;;;-146.16;100.00
59053;BME280;44843;44.728;10.396;2023-05-22T09:04:52;61389.06;;;-146.16;100.00
59053;BME280;44843;44.728;10.396;2023-05-22T09:07:18;61389.06;;;-146.16;100.00
59053;BME280;44843;44.728;10.396;2023-05-22T09:09:46;61389.06;;;-146.16;100.00
59053;BME280;44843;44.728;10.396;2023-05-22T09:12:11;61389.06;;;-146.16;100.00
59053;BME280;44843;44.728;10.396;2023-05-22T09:14:40;61389.06;;;-146.16;100.00
59053;BME280;44843;44.728;10.396;2023-05-22T09:17:06;61389.06;;;-146.16;100.00
59053;BME280;44843;44.728;10.396;2023-05-22T09:19:32;61389.06;;;-146.16;100.00
59053;BME280;44843;44.728;10.396;2023-05-22T09:22:01;61389.06;;;-146.16;100.00
59053;BME280;44843;44.728;10.396;2023-05-22T09:24:27;61389.06;;;-146.16;100.00
59053;BME280;44843;44.728;10.396;2023-05-22T09:26:52;61389.06;;;-146.16;100.00
59053;BME280;44843;44.728;10.396;2023-05-22T09:29:17;61389.06;;;-146.16;100.00
59053;BME280;44843;44.728;10.396;2023-05-22T09:31:43;61389.06;;;-146.16;100.00
59053;BME280;44843;44.728;10.396;2023-05-22T09:34:11;61389.06;;;-146.16;100.00
59053;BME280;44843;44.728;10.396;2023-05-22T09:36:39;61389.06;;;-146.16;100.00
59053;BME280;44843;44.728;10.396;2023-05-22T09:39:05;61389.06;;;-146.16;100.00
59053;BME280;44843;44.728;10.396;2023-05-22T09:41:37;61389.06;;;-146.16;100.00
59053;BME280;44843;44.728;10.396;2023-05-22T09:44:12;61389.06;;;-146.16;100.00
59053;BME280;44843;44.728;10.396;2023-05-22T09:46:44;61389.06;;;-146.16;100.00
59053;BME280;44843;44.728;10.396;2023-05-22T09:49:10;61389.06;;;-146.16;100.00
59053;BME280;44843;44.728;10.396;2023-05-22T09:51:38;61389.06;;;-146.16;100.00
59053;BME280;44843;44.728;10.396;2023-05-22T09:54:06;61389.06;;;-146.16;100.00
59053;BME280;44843;44.728;10.396;2023-05-22T09:56:34;61389.06;;;-146.16;100.00
59053;BME280;44843;44.728;10.396;2023-05-22T09:59:00;61389.06;;;-146.16;100.00
59053;BME280;44843;44.728;10.396;2023-05-22T10:01:26;61389.06;;;-146.16;100.00
59053;BME280;44843;44.728;10.396;2023-05-22T10:03:53;61389.06;;;-146.16;100.00
59053;BME280;44843;44.728;10.396;2023-05-22T10:06:19;61389.06;;;-146.16;100.00
59053;BME280;44843;44.728;10.396;2023-05-22T10:08:48;61389.06;;;-146.16;100.00
59053;BME280;44843;44.728;10.396;2023-05-22T10:11:15;61389.06;;;-146.16;100.00
59053;BME280;44843;44.728;10.396;2023-05-22T10:13:42;61389.06;;;-146.16;100.00
59053;BME280;44843;44.728;10.396;2023-05-22T10:16:09;61389.06;;;-146.16;100.00
59053;BME280;44843;44.728;10.396;2023-05-22T10:18:37;61389.06;;;-146.16;100.00
59053;BME280;44843;44.728;10.396;2023-05-22T10:21:02;61389.06;;;-146.16;100.00
59053;BME280;44843;44.728;10.396;2023-05-22T10:23:28;61389.06;;;-146.16;100.00
59053;BME280;44843;44.728;10.396;2023-05-22T10:25:53;61389.06;;;-146.16;100.00
59053;BME280;44843;44.728;10.396;2023-05-22T10:28:26;61389.06;;;-146.16;100.00
59053;BME280;44843;44.728;10.396;2023-05-22T10:30:59;61389.06;;;-146.16;100.00
59053;BME280;44843;44.728;10.396;2023-05-22T10:33:28;61389.06;;;-146.16;100.00
59053;BME280;44843;44.728;10.396;2023-05-22T10:35:57;61389.06;;;-146.16;100.00
59053;BME280;44843;44.728;10.396;2023-05-22T10:41:09;61389.06;;;-146.16;100.00
59053;BME280;44843;44.728;10.396;2023-05-22T10:43:39;61389.06;;;-146.16;100.00
59053;BME280;44843;44.728;10.396;2023-05-22T10:46:06;61389.06;;;-146.16;100.00
59053;BME280;44843;44.728;10.396;2023-05-22T10:48:56;61389.06;;;-146.16;100.00
59053;BME280;44843;44.728;10.396;2023-05-22T10:51:22;61389.06;;;-146.16;100.00
59053;BME280;44843;44.728;10.396;2023-05-22T10:53:50;61389.06;;;-146.16;100.00
59053;BME280;44843;44.728;10.396;2023-05-22T10:56:19;61389.06;;;-146.16;100.00
59053;BME280;44843;44.728;10.396;2023-05-22T10:58:54;61389.06;;;-146.16;100.00
59053;BME280;44843;44.728;10.396;2023-05-22T11:01:20;61389.06;;;-146.16;100.00
59053;BME280;44843;44.728;10.396;2023-05-22T11:03:52;61389.06;;;-146.16;100.00
59053;BME280;44843;44.728;10.396;2023-05-22T11:08:58;61389.06;;;-146.16;100.00
59053;BME280;44843;44.728;10.396;2023-05-22T11:11:24;61389.06;;;-146.16;100.00
59053;BME280;44843;44.728;10.396;2023-05-22T11:14:00;61389.06;;;-146.16;100.00
59053;BME280;44843;44.728;10.396;2023-05-22T11:16:30;61389.06;;;-146.16;100.00
59053;BME280;44843;44.728;10.396;2023-05-22T11:19:01;61389.06;;;-146.16;100.00
59053;BME280;44843;44.728;10.396;2023-05-22T11:21:29;61389.06;;;-146.16;100.00
59053;BME280;44843;44.728;10.396;2023-05-22T11:23:58;61389.06;;;-146.16;100.00
59053;BME280;44843;44.728;10.396;2023-05-22T11:26:23;61389.06;;;-146.16;100.00
59053;BME280;44843;44.728;10.396;2023-05-22T11:28:49;61389.06;;;-146.16;100.00
59053;BME280;44843;44.728;10.396;2023-05-22T11:31:16;61389.06;;;-146.16;100.00
59053;BME280;44843;44.728;10.396;2023-05-22T11:33:43;61389.06;;;-146.16;100.00
59053;BME280;44843;44.728;10.396;2023-05-22T11:36:09;61389.06;;;-146.16;100.00
59053;BME280;44843;44.728;10.396;2023-05-22T11:38:35;61389.06;;;-146.16;100.00
59053;BME280;44843;44.728;10.396;2023-05-22T11:41:01;61389.06;;;-146.16;100.00
59053;BME280;44843;44.728;10.396;2023-05-22T11:43:29;61389.06;;;-146.16;100.00
59053;BME280;44843;44.728;10.396;2023-05-22T11:46:00;61389.06;;;-146.16;100.00
59053;BME280;44843;44.728;10.396;2023-05-22T11:48:29;61389.06;;;-146.16;100.00
59053;BME280;44843;44.728;10.396;2023-05-22T11:50:55;61389.06;;;-146.16;100.00
59053;BME280;44843;44.728;10.396;2023-05-22T11:53:20;61389.06;;;-146.16;100.00
59053;BME280;44843;44.728;10.396;2023-05-22T11:55:46;61389.06;;;-146.16;100.00
59053;BME280;44843;44.728;10.396;2023-05-22T11:58:12;61389.06;;;-146.16;100.00
59053;BME280;44843;44.728;10.396;2023-05-22T12:00:37;61389.06;;;-146.16;100.00
59053;BME280;44843;44.728;10.396;2023-05-22T12:03:02;61389.06;;;-146.16;100.00
59053;BME280;44843;44.728;10.396;2023-05-22T12:05:30;61389.06;;;-146.16;100.00
59053;BME280;44843;44.728;10.396;2023-05-22T12:07:55;61389.06;;;-146.16;100.00
59053;BME280;44843;44.728;10.396;2023-05-22T12:10:20;61389.06;;;-146.16;100.00
59053;BME280;44843;44.728;10.396;2023-05-22T12:12:46;61389.06;;;-146.16;100.00
59053;BME280;44843;44.728;10.396;2023-05-22T12:15:12;61389.06;;;-146.16;100.00
59053;BME280;44843;44.728;10.396;2023-05-22T12:17:38;61389.06;;;-146.16;100.00
59053;BME280;44843;44.728;10.396;2023-05-22T12:20:04;61389.06;;;-146.16;100.00
59053;BME280;44843;44.728;10.396;2023-05-22T12:22:30;61389.06;;;-146.16;100.00
59053;BME280;44843;44.728;10.396;2023-05-22T12:24:55;61389.06;;;-146.16;100.00
59053;BME280;44843;44.728;10.396;2023-05-22T12:27:21;61389.06;;;-146.16;100.00
59053;BME280;44843;44.728;10.396;2023-05-22T12:29:46;61389.06;;;-146.16;100.00
59053;BME280;44843;44.728;10.396;2023-05-22T12:32:12;61389.06;;;-146.16;100.00
59053;BME280;44843;44.728;10.396;2023-05-22T12:34:42;61389.06;;;-146.16;100.00
59053;BME280;44843;44.728;10.396;2023-05-22T12:37:22;61389.06;;;-146.16;100.00
59053;BME280;44843;44.728;10.396;2023-05-22T12:40:07;61389.06;;;-146.16;100.00
59053;BME280;44843;44.728;10.396;2023-05-22T12:42:32;61389.06;;;-146.16;100.00
59053;BME280;44843;44.728;10.396;2023-05-22T12:44:58;61389.06;;;-146.16;100.00